createdAt,value
2018-03-03T00:01:09.377Z,-2.78
2018-03-03T00:03:39.367Z,-2.76
2018-03-03T00:06:09.184Z,-3.01
2018-03-03T00:08:38.951Z,-2.87
2018-03-03T00:11:08.996Z,-2.67
2018-03-03T00:13:41.741Z,-2.65
2018-03-03T00:16:14.104Z,-2.64
2018-03-03T00:18:45.571Z,-2.60
2018-03-03T00:21:15.479Z,-2.65
2018-03-03T00:23:45.478Z,-2.66
2018-03-03T00:26:14.945Z,-2.80
2018-03-03T00:28:47.396Z,-2.73
2018-03-03T00:31:17.087Z,-2.83
2018-03-03T00:33:46.744Z,-2.64
2018-03-03T00:36:16.883Z,-2.55
2018-03-03T00:38:46.514Z,-2.80
2018-03-03T00:41:16.546Z,-2.62
2018-03-03T00:43:46.206Z,-2.80
2018-03-03T00:46:15.592Z,-2.62
2018-03-03T00:48:45.360Z,-2.78
2018-03-03T00:51:15.865Z,-2.65
2018-03-03T00:53:45.693Z,-2.43
2018-03-03T00:56:15.481Z,-2.52
2018-03-03T00:58:45.265Z,-2.55
2018-03-03T01:01:14.734Z,-2.52
2018-03-03T01:03:45.094Z,-2.72
2018-03-03T01:06:15.134Z,-2.54
2018-03-03T01:08:45.185Z,-2.37
2018-03-03T01:11:15.803Z,-2.40
2018-03-03T01:13:45.210Z,-2.34
2018-03-03T01:16:14.996Z,-2.67
2018-03-03T01:18:44.951Z,-2.67
2018-03-03T01:21:14.681Z,-2.43
2018-03-03T01:23:44.429Z,-2.28
2018-03-03T01:26:14.191Z,-2.44
2018-03-03T01:28:44.030Z,-2.51
2018-03-03T01:31:16.067Z,-2.49
2018-03-03T01:33:46.332Z,-2.37
2018-03-03T01:36:16.167Z,-2.32
2018-03-03T01:38:46.544Z,-2.45
2018-03-03T01:41:15.970Z,-2.61
2018-03-03T01:43:45.587Z,-2.27
2018-03-03T01:46:15.483Z,-2.54
2018-03-03T01:48:46.450Z,-2.34
2018-03-03T01:51:24.570Z,-2.52
2018-03-03T01:53:54.373Z,-2.72
2018-03-03T01:56:25.751Z,-2.42
2018-03-03T01:58:55.804Z,-2.36
2018-03-03T02:01:27.514Z,-2.49
2018-03-03T02:03:59.549Z,-2.53
2018-03-03T02:06:29.572Z,-2.60
2018-03-03T02:09:01.456Z,-2.63
2018-03-03T02:11:39.517Z,-2.94
2018-03-03T02:14:11.315Z,-2.90
2018-03-03T02:16:41.882Z,-2.68
2018-03-03T02:19:13.816Z,-2.67
2018-03-03T02:21:43.741Z,-2.67
2018-03-03T02:24:14.925Z,-2.55
2018-03-03T02:26:44.806Z,-2.62
2018-03-03T02:29:14.647Z,-2.65
2018-03-03T02:31:45.361Z,-2.68
2018-03-03T02:34:15.442Z,-2.69
2018-03-03T02:36:45.327Z,-2.63
2018-03-03T02:39:15.293Z,-2.48
2018-03-03T02:41:45.062Z,-2.45
2018-03-03T02:44:14.848Z,-2.28
2018-03-03T02:46:44.664Z,-2.26
2018-03-03T02:49:14.358Z,-2.33
2018-03-03T02:51:44.058Z,-2.22
2018-03-03T02:54:13.888Z,-2.44
2018-03-03T02:56:43.803Z,-2.45
2018-03-03T02:59:13.956Z,-2.48
2018-03-03T03:01:43.632Z,-2.48
2018-03-03T03:04:13.877Z,-2.71
2018-03-03T03:06:43.838Z,-2.63
2018-03-03T03:09:13.748Z,-2.79
2018-03-03T03:11:43.569Z,-2.85
2018-03-03T03:14:14.177Z,-3.00
2018-03-03T03:16:44.128Z,-2.80
2018-03-03T03:19:13.960Z,-2.91
2018-03-03T03:21:44.321Z,-2.92
2018-03-03T03:24:14.081Z,-2.80
2018-03-03T03:26:45.137Z,-2.59
2018-03-03T03:29:16.357Z,-2.65
2018-03-03T03:31:46.757Z,-2.66
2018-03-03T03:34:17.170Z,-2.65
2018-03-03T03:36:47.324Z,-2.75
2018-03-03T03:39:17.509Z,-2.65
2018-03-03T03:41:47.083Z,-2.76
2018-03-03T03:44:16.988Z,-2.78
2018-03-03T03:46:47.246Z,-2.73
2018-03-03T03:49:17.042Z,-2.76
2018-03-03T03:51:47.021Z,-2.70
2018-03-03T03:54:17.172Z,-2.40
2018-03-03T03:56:46.795Z,-2.56
2018-03-03T03:59:16.718Z,-2.56
2018-03-03T04:01:47.627Z,-2.69
2018-03-03T04:04:17.333Z,-2.30
2018-03-03T04:06:47.608Z,-2.59
2018-03-03T04:09:17.610Z,-2.67
2018-03-03T04:11:50.256Z,-2.76
2018-03-03T04:14:19.936Z,-2.60
2018-03-03T04:16:49.642Z,-2.77
2018-03-03T04:19:19.762Z,-2.63
2018-03-03T04:21:50.227Z,-2.75
2018-03-03T04:24:20.034Z,-2.78
2018-03-03T04:26:50.105Z,-2.56
2018-03-03T04:29:20.108Z,-2.54
2018-03-03T04:31:49.922Z,-2.60
2018-03-03T04:34:19.857Z,-2.47
2018-03-03T04:36:50.233Z,-2.47
2018-03-03T04:39:19.935Z,-2.47
2018-03-03T04:41:49.688Z,-2.57
2018-03-03T04:44:19.882Z,-2.54
2018-03-03T04:46:49.965Z,-2.47
2018-03-03T04:49:20.126Z,-2.48
2018-03-03T04:51:50.763Z,-2.35
2018-03-03T04:54:20.907Z,-2.68
2018-03-03T04:56:51.263Z,-2.52
2018-03-03T04:59:21.253Z,-2.44
2018-03-03T05:01:51.334Z,-2.45
2018-03-03T05:04:21.210Z,-2.39
2018-03-03T05:06:51.841Z,-2.47
2018-03-03T05:09:21.766Z,-2.75
2018-03-03T05:11:51.926Z,-2.69
2018-03-03T05:14:21.881Z,-2.83
2018-03-03T05:16:52.406Z,-3.01
2018-03-03T05:19:23.625Z,-3.06
2018-03-03T05:21:57.939Z,-2.98
2018-03-03T05:24:28.697Z,-3.09
2018-03-03T05:27:04.182Z,-2.96
2018-03-03T05:29:34.602Z,-3.13
2018-03-03T05:32:07.760Z,-2.88
2018-03-03T05:34:41.674Z,-2.88
2018-03-03T05:37:12.314Z,-2.98
2018-03-03T05:39:42.232Z,-3.13
2018-03-03T05:42:12.091Z,-3.07
2018-03-03T05:44:42.843Z,-3.26
2018-03-03T05:47:12.828Z,-3.12
2018-03-03T05:49:44.731Z,-3.07
2018-03-03T05:52:14.743Z,-3.01
2018-03-03T05:54:45.540Z,-2.92
2018-03-03T05:57:15.376Z,-3.09
2018-03-03T05:59:45.711Z,-2.96
2018-03-03T06:02:16.269Z,-2.96
2018-03-03T06:04:47.590Z,-3.15
2018-03-03T06:07:17.864Z,-3.35
2018-03-03T06:09:48.332Z,-3.20
2018-03-03T06:12:19.565Z,-3.28
2018-03-03T06:14:50.487Z,-3.33
2018-03-03T06:17:20.378Z,-3.23
2018-03-03T06:19:50.551Z,-3.22
2018-03-03T06:22:20.737Z,-3.11
2018-03-03T06:24:51.479Z,-3.45
2018-03-03T06:27:21.458Z,-3.11
2018-03-03T06:29:52.504Z,-3.49
2018-03-03T06:32:22.624Z,-3.46
2018-03-03T06:34:53.022Z,-3.40
2018-03-03T06:37:22.934Z,-3.31
2018-03-03T06:39:53.544Z,-3.36
2018-03-03T06:42:23.401Z,-3.34
2018-03-03T06:44:53.111Z,-3.17
2018-03-03T06:47:23.016Z,-3.17
2018-03-03T06:49:54.823Z,-3.43
2018-03-03T06:52:24.507Z,-3.31
2018-03-03T06:54:54.433Z,-3.05
2018-03-03T06:57:24.140Z,-2.92
2018-03-03T06:59:53.733Z,-3.12
2018-03-03T07:02:23.731Z,-3.12
2018-03-03T07:04:55.216Z,-3.14
2018-03-03T07:07:27.060Z,-3.33
2018-03-03T07:09:57.174Z,-3.05
2018-03-03T07:12:29.252Z,-3.17
2018-03-03T07:15:02.168Z,-3.30
2018-03-03T07:17:33.219Z,-3.18
2018-03-03T07:20:06.620Z,-3.13
2018-03-03T07:22:36.360Z,-3.00
2018-03-03T07:25:07.798Z,-3.32
2018-03-03T07:27:37.526Z,-3.18
2018-03-03T07:30:07.166Z,-3.03
2018-03-03T07:32:37.324Z,-2.99
2018-03-03T07:35:07.819Z,-2.75
2018-03-03T07:37:38.020Z,-2.81
2018-03-03T07:40:08.557Z,-2.61
2018-03-03T07:42:39.265Z,-2.63
2018-03-03T07:45:14.447Z,-2.53
2018-03-03T07:47:44.447Z,-2.37
2018-03-03T07:50:14.196Z,-2.33
2018-03-03T07:52:44.208Z,-2.41
2018-03-03T07:55:14.653Z,-2.38
2018-03-03T07:57:45.791Z,-2.48
2018-03-03T08:00:15.778Z,-2.30
2018-03-03T08:02:45.925Z,-2.46
2018-03-03T08:05:16.057Z,-2.52
2018-03-03T08:07:45.784Z,-2.56
2018-03-03T08:10:15.980Z,-2.78
2018-03-03T08:12:46.867Z,-2.66
2018-03-03T08:15:16.603Z,-2.55
2018-03-03T08:17:47.836Z,-2.40
2018-03-03T08:20:17.661Z,-2.24
2018-03-03T08:22:47.543Z,-2.19
2018-03-03T08:25:17.652Z,-2.05
2018-03-03T08:27:48.885Z,-2.03
2018-03-03T08:30:18.696Z,-1.90
2018-03-03T08:32:48.469Z,-1.76
2018-03-03T08:35:18.124Z,-1.92
2018-03-03T08:37:48.927Z,-1.84
2018-03-03T08:40:19.088Z,-1.87
2018-03-03T08:42:53.962Z,-1.94
2018-03-03T08:45:24.028Z,-1.97
2018-03-03T08:47:53.846Z,-1.97
2018-03-03T08:50:36.547Z,-1.88
2018-03-03T08:53:08.937Z,-1.98
2018-03-03T08:55:42.065Z,-2.02
2018-03-03T08:58:13.822Z,-2.10
2018-03-03T09:00:44.258Z,-1.59
2018-03-03T09:03:14.315Z,-1.75
2018-03-03T09:05:46.584Z,-1.66
2018-03-03T09:08:16.678Z,-1.40
2018-03-03T09:10:49.169Z,-1.39
2018-03-03T09:13:19.141Z,-1.42
2018-03-03T09:15:49.199Z,-1.50
2018-03-03T09:18:20.063Z,-1.26
2018-03-03T09:20:50.648Z,-0.91
2018-03-03T09:23:22.330Z,-0.86
2018-03-03T09:25:52.482Z,-0.50
2018-03-03T09:28:25.927Z,-0.62
2018-03-03T09:30:55.925Z,-0.32
2018-03-03T09:33:26.450Z,-0.23
2018-03-03T09:35:55.925Z,-0.02
2018-03-03T09:38:25.709Z,-0.08
2018-03-03T09:40:55.878Z,0.04
2018-03-03T09:43:25.890Z,-0.01
2018-03-03T09:45:55.706Z,0.21
2018-03-03T09:48:26.092Z,0.11
2018-03-03T09:50:55.783Z,0.18
2018-03-03T09:53:25.395Z,0.47
2018-03-03T09:55:56.755Z,0.47
2018-03-03T09:58:27.585Z,0.29
2018-03-03T10:00:59.743Z,0.31
2018-03-03T10:03:30.206Z,0.50
2018-03-03T10:06:00.559Z,0.69
2018-03-03T10:08:32.298Z,0.95
2018-03-03T10:11:03.484Z,0.52
2018-03-03T10:13:32.957Z,0.28
2018-03-03T10:16:02.751Z,0.20
2018-03-03T10:18:34.710Z,0.29
2018-03-03T10:21:04.624Z,0.19
2018-03-03T10:23:34.802Z,0.11
2018-03-03T10:26:04.732Z,0.29
2018-03-03T10:28:34.840Z,0.55
2018-03-03T10:31:05.760Z,0.64
2018-03-03T10:33:39.308Z,0.74
2018-03-03T10:36:09.824Z,0.74
2018-03-03T10:38:39.874Z,0.47
2018-03-03T10:41:09.324Z,0.58
2018-03-03T10:45:17.602Z,0.82
2018-03-03T10:47:47.344Z,1.15
2018-03-03T10:50:17.058Z,1.13
2018-03-03T10:52:46.774Z,1.10
2018-03-03T10:55:16.399Z,0.97
2018-03-03T10:57:47.693Z,0.82
2018-03-03T11:00:21.622Z,1.00
2018-03-03T11:02:52.138Z,1.00
2018-03-03T11:05:21.843Z,0.90
2018-03-03T11:07:51.289Z,1.29
2018-03-03T11:10:21.470Z,1.13
2018-03-03T11:12:51.139Z,1.31
2018-03-03T11:15:20.901Z,1.62
2018-03-03T11:17:50.691Z,1.37
2018-03-03T11:20:20.587Z,1.50
2018-03-03T11:22:51.022Z,1.55
2018-03-03T11:25:20.725Z,1.63
2018-03-03T11:27:50.585Z,1.89
2018-03-03T11:30:20.331Z,2.13
2018-03-03T11:32:50.440Z,2.15
2018-03-03T11:35:21.801Z,2.33
2018-03-03T11:37:52.212Z,2.12
2018-03-03T11:40:23.349Z,1.99
2018-03-03T11:42:56.704Z,1.42
2018-03-03T11:45:28.341Z,1.93
2018-03-03T11:47:58.759Z,2.39
2018-03-03T11:50:30.080Z,2.22
2018-03-03T11:53:04.744Z,2.37
2018-03-03T11:55:35.111Z,2.41
2018-03-03T11:58:08.812Z,2.25
2018-03-03T12:00:39.142Z,2.66
2018-03-03T12:03:12.305Z,2.56
2018-03-03T12:05:42.887Z,2.38
2018-03-03T12:08:12.726Z,2.37
2018-03-03T12:10:42.571Z,2.39
2018-03-03T12:13:14.081Z,2.25
2018-03-03T12:15:45.035Z,2.11
2018-03-03T12:18:14.829Z,2.49
2018-03-03T12:20:44.481Z,2.60
2018-03-03T12:23:15.162Z,2.09
2018-03-03T12:25:46.375Z,2.11
2018-03-03T12:28:16.761Z,1.77
2018-03-03T12:30:46.245Z,1.96
2018-03-03T12:33:16.283Z,2.23
2018-03-03T12:35:46.034Z,2.55
2018-03-03T12:38:15.530Z,2.37
2018-03-03T12:40:46.389Z,2.41
2018-03-03T12:43:16.596Z,2.74
2018-03-03T12:45:46.599Z,2.74
2018-03-03T12:48:16.000Z,2.58
2018-03-03T12:50:46.151Z,2.80
2018-03-03T12:53:15.719Z,3.11
2018-03-03T12:55:46.193Z,3.48
2018-03-03T12:58:16.372Z,3.93
2018-03-03T13:00:46.442Z,4.06
2018-03-03T13:03:15.912Z,3.94
2018-03-03T13:05:45.369Z,4.07
2018-03-03T13:08:16.748Z,4.48
2018-03-03T13:10:47.161Z,4.61
2018-03-03T13:13:18.686Z,4.50
2018-03-03T13:15:49.596Z,4.67
2018-03-03T13:18:19.039Z,4.49
2018-03-03T13:20:49.355Z,4.37
2018-03-03T13:23:18.970Z,4.54
2018-03-03T13:25:48.488Z,4.85
2018-03-03T13:28:18.300Z,4.92
2018-03-03T13:30:48.652Z,4.36
2018-03-03T13:33:18.540Z,4.57
2018-03-03T13:35:48.030Z,4.59
2018-03-03T13:38:17.842Z,4.62
2018-03-03T13:40:47.340Z,4.66
2018-03-03T13:43:16.789Z,4.62
2018-03-03T13:45:46.656Z,4.54
2018-03-03T13:48:16.649Z,4.37
2018-03-03T13:50:47.768Z,4.00
2018-03-03T13:53:17.641Z,3.80
2018-03-03T13:55:47.730Z,4.02
2018-03-03T13:58:17.212Z,4.14
2018-03-03T14:00:47.984Z,4.21
2018-03-03T14:03:17.508Z,4.33
2018-03-03T14:05:47.539Z,4.54
2018-03-03T14:08:17.915Z,4.18
2018-03-03T14:10:49.213Z,4.15
2018-03-03T14:13:18.696Z,4.10
2018-03-03T14:15:48.538Z,3.82
2018-03-03T14:18:18.156Z,3.36
2018-03-03T14:20:48.361Z,3.40
2018-03-03T14:23:18.231Z,3.40
2018-03-03T14:25:47.888Z,3.12
2018-03-03T14:28:17.476Z,2.81
2018-03-03T14:30:47.271Z,3.08
2018-03-03T14:33:17.394Z,2.94
2018-03-03T14:35:47.145Z,2.61
2018-03-03T14:38:16.880Z,2.80
2018-03-03T14:40:46.425Z,2.73
2018-03-03T14:43:15.938Z,2.84
2018-03-03T14:45:48.855Z,2.78
2018-03-03T14:48:18.643Z,2.35
2018-03-03T14:50:53.168Z,2.18
2018-03-03T14:53:27.114Z,1.91
2018-03-03T14:56:01.685Z,1.80
2018-03-03T14:58:36.265Z,1.82
2018-03-03T15:01:07.411Z,1.78
2018-03-03T15:03:41.138Z,1.80
2018-03-03T15:06:14.951Z,1.75
2018-03-03T15:08:45.339Z,1.71
2018-03-03T15:11:14.830Z,1.76
2018-03-03T15:13:45.910Z,1.86
2018-03-03T15:16:16.494Z,1.77
2018-03-03T15:18:46.898Z,1.85
2018-03-03T15:21:17.853Z,1.76
2018-03-03T15:23:47.785Z,1.90
2018-03-03T15:26:17.285Z,1.69
2018-03-03T15:28:51.199Z,1.61
2018-03-03T15:31:21.381Z,1.87
2018-03-03T15:33:52.738Z,1.76
2018-03-03T15:36:22.797Z,1.50
2018-03-03T15:38:53.563Z,1.56
2018-03-03T15:41:23.546Z,1.61
2018-03-03T15:43:53.005Z,1.49
2018-03-03T15:46:23.735Z,1.53
2018-03-03T15:48:54.579Z,1.50
2018-03-03T15:51:24.123Z,1.56
2018-03-03T15:53:53.598Z,1.48
2018-03-03T15:56:23.388Z,1.49
2018-03-03T15:58:54.888Z,1.53
2018-03-03T16:01:24.845Z,1.49
2018-03-03T16:03:56.180Z,1.64
2018-03-03T16:06:26.564Z,1.45
2018-03-03T16:08:56.302Z,1.35
2018-03-03T16:11:26.625Z,1.32
2018-03-03T16:13:56.535Z,1.17
2018-03-03T16:16:26.823Z,1.09
2018-03-03T16:18:56.899Z,1.10
2018-03-03T16:21:27.085Z,0.91
2018-03-03T16:23:57.126Z,1.11
2018-03-03T16:26:26.984Z,1.18
2018-03-03T16:28:56.405Z,1.17
2018-03-03T16:31:26.475Z,1.25
2018-03-03T16:33:56.530Z,1.35
2018-03-03T16:36:26.841Z,1.30
2018-03-03T16:38:59.555Z,1.20
2018-03-03T16:41:29.593Z,1.08
2018-03-03T16:43:59.768Z,1.28
2018-03-03T16:46:29.704Z,1.09
2018-03-03T16:49:03.750Z,1.02
2018-03-03T16:51:33.460Z,1.02
2018-03-03T16:54:04.198Z,0.97
2018-03-03T16:56:35.393Z,1.04
2018-03-03T16:59:06.443Z,1.15
2018-03-03T17:01:36.073Z,0.96
2018-03-03T17:04:07.295Z,0.88
2018-03-03T17:06:37.887Z,0.97
2018-03-03T17:09:09.360Z,0.86
2018-03-03T17:11:38.883Z,0.93
2018-03-03T17:14:10.466Z,0.83
2018-03-03T17:16:40.213Z,0.96
2018-03-03T17:19:10.293Z,0.92
2018-03-03T17:21:44.342Z,1.03
2018-03-03T17:24:14.090Z,0.99
2018-03-03T17:26:45.220Z,1.00
2018-03-03T17:29:14.675Z,0.88
2018-03-03T17:31:46.520Z,0.69
2018-03-03T17:34:18.380Z,0.78
2018-03-03T17:36:47.911Z,0.80
2018-03-03T17:39:17.591Z,0.83
2018-03-03T17:41:47.395Z,0.53
2018-03-03T17:44:17.644Z,0.72
2018-03-03T17:46:47.293Z,0.82
2018-03-03T17:49:17.232Z,0.82
2018-03-03T17:51:49.282Z,0.85
2018-03-03T17:54:18.873Z,0.67
2018-03-03T17:56:48.754Z,0.76
2018-03-03T17:59:18.251Z,0.78
2018-03-03T18:01:47.933Z,0.96
2018-03-03T18:04:17.860Z,0.88
2018-03-03T18:06:47.502Z,0.96
2018-03-03T18:09:17.111Z,1.04
2018-03-03T18:11:56.824Z,0.91
2018-03-03T18:14:27.030Z,0.83
2018-03-03T18:16:56.549Z,1.00
2018-03-03T18:19:28.809Z,0.99
2018-03-03T18:21:58.408Z,0.90
2018-03-03T18:24:35.192Z,0.80
2018-03-03T18:27:04.917Z,0.85
2018-03-03T18:29:34.669Z,0.78
2018-03-03T18:32:04.565Z,0.72
2018-03-03T18:34:34.160Z,0.99
2018-03-03T18:37:03.696Z,0.95
2018-03-03T18:39:33.674Z,1.02
2018-03-03T18:42:03.209Z,1.05
2018-03-03T18:44:32.786Z,0.80
2018-03-03T18:47:03.624Z,1.05
2018-03-03T18:49:33.063Z,1.05
2018-03-03T18:52:04.724Z,1.09
2018-03-03T18:54:35.922Z,0.90
2018-03-03T18:57:07.970Z,1.02
2018-03-03T18:59:37.849Z,1.01
2018-03-03T19:02:07.896Z,1.06
2018-03-03T19:04:37.705Z,0.97
2018-03-03T19:07:07.600Z,1.03
2018-03-03T19:09:37.956Z,1.10
2018-03-03T19:12:07.871Z,0.94
2018-03-03T19:14:37.640Z,0.98
2018-03-03T19:17:07.619Z,1.05
2018-03-03T19:19:37.431Z,0.82
2018-03-03T19:22:06.918Z,0.94
2018-03-03T19:24:37.140Z,0.82
2018-03-03T19:27:07.047Z,0.94
2018-03-03T19:30:39.421Z,0.99
2018-03-03T19:33:09.146Z,1.06
2018-03-03T19:35:39.053Z,1.00
2018-03-03T19:38:09.437Z,1.18
2018-03-03T19:40:39.123Z,1.07
2018-03-03T19:43:08.586Z,1.09
2018-03-03T19:45:38.135Z,1.15
2018-03-03T19:48:07.635Z,1.18
2018-03-03T19:50:37.178Z,1.06
2018-03-03T19:53:07.210Z,1.16
2018-03-03T19:55:36.670Z,1.18
2018-03-03T19:58:06.417Z,0.91
2018-03-03T20:00:35.957Z,1.21
2018-03-03T20:03:05.512Z,0.99
2018-03-03T20:05:35.019Z,0.81
2018-03-03T20:08:05.114Z,1.11
2018-03-03T20:10:34.715Z,0.98
2018-03-03T20:13:05.663Z,1.07
2018-03-03T20:15:35.510Z,1.13
2018-03-03T20:18:05.529Z,1.17
2018-03-03T20:20:35.422Z,1.17
2018-03-03T20:23:05.099Z,1.22
2018-03-03T20:25:34.785Z,1.22
2018-03-03T20:28:04.908Z,1.00
2018-03-03T20:30:34.526Z,1.10
2018-03-03T20:33:04.635Z,1.03
2018-03-03T20:35:34.786Z,1.05
2018-03-03T20:38:04.466Z,0.97
2018-03-03T20:40:34.642Z,0.96
2018-03-03T20:43:26.986Z,0.74
2018-03-03T20:45:56.952Z,0.69
2018-03-03T20:48:26.938Z,0.53
2018-03-03T20:50:56.708Z,0.41
2018-03-03T20:53:26.321Z,0.18
2018-03-03T20:55:55.986Z,0.29
2018-03-03T20:58:26.012Z,0.45
2018-03-03T21:00:55.876Z,0.27
2018-03-03T21:03:25.566Z,0.16
2018-03-03T21:05:55.196Z,0.10
2018-03-03T21:08:24.947Z,-0.03
2018-03-03T21:11:02.255Z,0.14
2018-03-03T21:13:33.538Z,0.02
2018-03-03T21:16:04.752Z,0.04
2018-03-03T21:18:40.204Z,0.06
2018-03-03T21:21:09.831Z,-0.11
2018-03-03T21:23:40.270Z,-0.05
2018-03-03T21:26:10.238Z,-0.18
2018-03-03T21:28:41.279Z,-0.09
2018-03-03T21:31:10.944Z,-0.04
2018-03-03T21:33:40.510Z,-0.18
2018-03-03T21:36:10.171Z,-0.15
2018-03-03T21:38:41.260Z,-0.28
2018-03-03T21:41:11.071Z,-0.25
2018-03-03T21:43:40.809Z,-0.35
2018-03-03T21:46:10.777Z,-0.45
2018-03-03T21:48:41.223Z,-0.71
2018-03-03T21:51:11.424Z,-0.66
2018-03-03T21:53:41.364Z,-0.53
2018-03-03T21:56:10.907Z,-0.51
2018-03-03T21:58:40.404Z,-0.37
2018-03-03T22:01:10.035Z,-0.28
2018-03-03T22:03:40.188Z,-0.53
2018-03-03T22:06:10.242Z,-0.36
2018-03-03T22:08:41.190Z,-0.20
2018-03-03T22:11:10.962Z,-0.21
2018-03-03T22:13:40.506Z,-0.26
2018-03-03T22:16:10.830Z,-0.35
2018-03-03T22:18:40.306Z,-0.35
2018-03-03T22:21:09.914Z,-0.37
2018-03-03T22:23:40.034Z,-0.38
2018-03-03T22:26:10.128Z,-0.33
2018-03-03T22:28:40.031Z,-0.37
2018-03-03T22:31:09.960Z,-0.40
2018-03-03T22:33:39.859Z,-0.50
2018-03-03T22:36:09.514Z,-0.61
2018-03-03T22:38:39.523Z,-0.56
2018-03-03T22:41:09.242Z,-0.65
2018-03-03T22:43:39.281Z,-0.83
2018-03-03T22:46:09.462Z,-0.97
2018-03-03T22:48:38.966Z,-0.92
2018-03-03T22:51:08.846Z,-1.10
2018-03-03T22:53:38.942Z,-1.18
2018-03-03T22:56:08.557Z,-1.28
2018-03-03T22:58:38.630Z,-1.20
2018-03-03T23:01:09.467Z,-1.15
2018-03-03T23:03:39.400Z,-1.16
2018-03-03T23:06:08.964Z,-1.12
2018-03-03T23:08:38.864Z,-1.24
2018-03-03T23:11:08.628Z,-1.25
2018-03-03T23:13:38.730Z,-1.39
2018-03-03T23:16:08.630Z,-1.30
2018-03-03T23:18:38.532Z,-1.50
2018-03-03T23:21:08.099Z,-1.47
2018-03-03T23:23:38.092Z,-1.48
2018-03-03T23:26:08.673Z,-1.54
2018-03-03T23:28:38.299Z,-1.49
2018-03-03T23:31:08.273Z,-1.50
2018-03-03T23:33:38.394Z,-1.63
2018-03-03T23:36:07.871Z,-1.75
2018-03-03T23:38:37.690Z,-1.81
2018-03-03T23:41:07.253Z,-1.75
2018-03-03T23:43:36.686Z,-1.77
2018-03-03T23:46:06.706Z,-1.78
2018-03-03T23:48:36.477Z,-1.77
2018-03-03T23:51:06.558Z,-1.81
2018-03-03T23:53:37.258Z,-1.81
2018-03-03T23:56:08.577Z,-1.69
2018-03-03T23:58:38.915Z,-1.78
